Latest Coastal Weather Observations for Weipa

IDQ60701

Issued at 12:43 pm EST Sunday 26 June 2016 (issued every 10 minutes, with the page automatically refreshed every 10 minutes)

About coastal observations | Map of coastal stations | Coastal observations for QLD | Marine services | Other Formats
Station Details ID: 027045 Name: WEIPA AERO Lat: -12.68 Lon: 141.92 Height: 17.96 m
Data from the previous 72 hours. | See also: Recent months at Weipa
Date/Time
EST
Temp
°C
Wind Pressure Rain since
9am
mm
Weather Cloud Vis
km
Sea
Height
m
Swell
Dir  Spd
kts
Gust
kts
hPa Trend Height
m
Period
s
Dir
26/12:30pm 29.1 E 11 14 1011.5 - 0.0 - Partly cloudy 10 - - - -
26/12:00pm 29.1 E 11 19 1011.7 - 0.0 - Partly cloudy 10 - - - -
26/11:30am 29.0 ESE 11 17 1012.2 - 0.0 - Partly cloudy 10 - - - -
26/11:00am 28.0 ESE 12 17 1012.5 - 0.0 - Partly cloudy 10 - - - -
26/10:30am 28.0 ESE 10 16 1012.8 - 0.0 - Partly cloudy 10 - - - -
26/10:00am 27.2 SE 9 14 1013.2 - 0.0 - - 10 - - - -
26/09:30am 26.2 ESE 8 11 1013.6 - 0.0 - - 10 - - - -
26/09:00am 24.4 SSE 3 5 1013.6 F 0.0 Haze Clear 30 - - - -
26/08:30am 22.9 SE 3 6 1013.5 - 0.0 - - 10 - - - -
26/08:00am 21.4 SSE 2 4 1013.4 - 0.0 - - 10 - - - -
26/07:30am 20.1 CALM 0 0 1013.3 - 0.0 - - 10 - - - -
26/07:00am 20.1 CALM 0 0 1013.2 - 0.0 - - 9 - - - -
26/06:30am 20.0 CALM 0 0 1013.1 - 0.0 - Partly cloudy 9 - - - -
26/06:00am 20.0 CALM 0 0 1012.7 - 0.0 - - 10 - - - -
26/05:30am 20.2 CALM 0 0 1012.7 - 0.0 - - 9 - - - -
26/05:00am 20.4 CALM 0 0 1012.6 - 0.0 - - 10 - - - -
26/04:30am 20.5 ESE 1 2 1012.5 - 0.0 - - 10 - - - -
26/04:00am 20.5 S 2 4 1012.2 - 0.0 - - 10 - - - -
26/03:30am 20.6 CALM 0 0 1012.3 - 0.0 - - 10 - - - -
26/03:00am 20.7 CALM 0 0 1012.2 - 0.0 - - 10 - - - -
26/02:30am 20.8 CALM 0 0 1012.3 - 0.0 - - 10 - - - -
26/02:00am 20.9 S 1 2 1012.4 - 0.0 - - 10 - - - -
26/01:30am 21.0 CALM 0 0 1012.7 - 0.0 - - 10 - - - -
26/01:00am 21.1 S 1 2 1012.9 - 0.0 - - 10 - - - -
26/12:30am 21.6 CALM 0 0 1013.0 - 0.0 - - 10 - - - -
26/12:00am 22.1 SSE 3 4 1013.0 - 0.0 - - 10 - - - -
 
Date/Time
EST
Temp
°C
Wind Pressure Rain since
9am
mm
Weather Cloud Vis
km
Sea
Height
m
Swell
Dir  Spd
kts
Gust
kts
hPa Trend Height
m
Period
s
Dir
25/11:30pm 22.5 S 3 3 1013.1 - 0.0 - - 10 - - - -
25/11:00pm 23.2 E 4 6 1013.1 - 0.0 - - 10 - - - -
25/10:30pm 23.5 E 3 5 1013.2 - 0.0 - - 10 - - - -
25/10:00pm 23.8 ESE 5 8 1013.1 - 0.0 - - 10 - - - -
25/09:30pm 23.8 E 4 5 1013.0 - 0.0 - - 10 - - - -
25/09:00pm 24.1 E 5 8 1012.6 - 0.0 - - 10 - - - -
25/08:30pm 24.1 E 3 4 1012.6 - 0.0 - - 10 - - - -
25/08:00pm 24.7 E 3 3 1012.2 - 0.0 - - 10 - - - -
25/07:30pm 25.2 E 3 5 1011.9 - 0.0 - - 10 - - - -
25/07:00pm 25.7 E 5 7 1011.7 - 0.0 - - 10 - - - -
25/06:30pm 26.4 E 5 8 1011.4 - 0.0 - - 10 - - - -
25/06:00pm 27.0 E 5 7 1011.1 - 0.0 - - 10 - - - -
25/05:30pm 27.9 E 7 11 1011.0 - 0.0 - - 10 - - - -
25/05:00pm 28.7 E 7 10 1010.9 - 0.0 - - 10 - - - -
25/04:30pm 29.4 E 7 10 1010.7 - 0.0 - - 10 - - - -
25/04:00pm 30.0 ESE 11 16 1010.6 - 0.0 - - 10 - - - -
25/03:30pm 30.2 E 11 16 1010.5 - 0.0 - - 10 - - - -
25/03:00pm 30.6 E 11 17 1010.4 - 0.0 - Mostly clear 10 - - - -
25/02:30pm 30.7 E 14 20 1010.6 - 0.0 - - 10 - - - -
25/02:00pm 30.7 E 13 20 1010.7 - 0.0 - - 10 - - - -
25/01:30pm 30.9 ESE 14 21 1011.1 - 0.0 - - 10 - - - -
25/01:00pm 30.6 E 12 18 1011.5 - 0.0 - Partly cloudy 10 - - - -
25/12:30pm 30.1 ESE 13 19 1011.8 - 0.0 - Partly cloudy 10 - - - -
25/12:00pm 29.7 E 14 19 1012.1 - 0.0 - - 10 - - - -
25/11:30am 29.4 ESE 14 20 1012.7 - 0.0 - Partly cloudy 10 - - - -
25/11:00am 28.5 ESE 13 20 1012.9 - 0.0 - - 10 - - - -
25/10:30am 28.1 ESE 13 19 1013.1 - 0.0 - - 10 - - - -
25/10:00am 27.1 E 7 11 1013.2 - 0.0 - - 10 - - - -
25/09:30am 26.3 E 7 12 1013.4 - 0.0 - - 10 - - - -
25/09:00am 25.2 ESE 8 11 1013.2 R 2.6 Haze Clear 30 - - - -
25/08:30am 24.1 SE 5 8 1013.1 - 2.6 - - 10 - - - -
25/08:00am 23.1 ESE 3 5 1012.9 - 2.6 - - 10 - - - -
25/07:30am 22.4 ESE 3 4 1012.6 - 2.6 - - 10 - - - -
25/07:00am 22.0 SE 3 4 1012.3 - 2.6 - - 10 - - - -
25/06:30am 22.0 ESE 2 3 1012.0 - 2.6 - - 10 - - - -
25/06:00am 22.2 SSE 2 3 1011.8 - 2.6 - - 10 - - - -
25/05:30am 22.3 SE 4 5 1011.6 - 2.6 - - 10 - - - -
25/05:00am 22.3 SE 3 6 1011.5 - 2.6 - - 10 - - - -
25/04:30am 22.3 SE 4 6 1011.4 - 2.4 - - 10 - - - -
25/04:00am 22.2 SE 3 4 1011.4 - 2.4 - - 10 - - - -
25/03:30am 21.8 CALM 0 0 1011.5 - 2.4 - - 8 - - - -
25/03:00am 22.0 CALM 0 1 1011.4 - 2.4 - - 10 - - - -
25/02:30am 22.5 SE 1 2 1011.8 - 2.4 - - 10 - - - -
25/02:00am 22.6 SE 2 3 1011.9 - 2.4 - - 10 - - - -
25/01:30am 22.6 CALM 0 2 1012.2 - 2.4 - - 10 - - - -
25/01:00am 22.9 SE 1 2 1012.1 - 2.4 - - 10 - - - -
25/12:30am 23.0 S 1 2 1012.1 - 2.4 - - 10 - - - -
25/12:00am 23.4 SE 3 3 1011.7 - 2.4 - - 10 - - - -
 
Date/Time
EST
Temp
°C
Wind Pressure Rain since
9am
mm
Weather Cloud Vis
km
Sea
Height
m
Swell
Dir  Spd
kts
Gust
kts
hPa Trend Height
m
Period
s
Dir
24/11:30pm 23.8 ESE 4 5 1012.3 - 2.4 - - 10 - - - -
24/11:00pm 24.0 E 4 7 1012.4 - 2.4 - - 10 - - - -
24/10:30pm 24.2 E 4 6 1012.5 - 2.4 - - 10 - - - -
24/10:00pm 24.3 E 4 6 1012.5 - 2.4 - - 10 - - - -
24/09:30pm 24.4 E 3 5 1012.4 - 2.4 - - 10 - - - -
24/09:00pm 24.5 ESE 3 3 1012.3 - 2.4 - - 10 - - - -
24/08:30pm 24.7 ESE 3 3 1012.4 - 2.4 - - 10 - - - -
24/08:00pm 24.9 ESE 3 4 1012.2 - 2.4 - - 10 - - - -
24/07:30pm 25.1 ESE 5 6 1011.5 - 2.4 - - 10 - - - -
24/07:00pm 25.4 ESE 6 7 1011.3 - 2.4 - Partly cloudy 10 - - - -
24/06:30pm 25.5 ESE 8 11 1011.0 - 2.4 - Partly cloudy 10 - - - -
24/06:07pm 25.6 E 8 12 1010.9 - 2.4 - Partly cloudy 10 - - - -
24/06:00pm 25.6 E 8 14 1010.8 - 2.4 - Cloudy 10 - - - -
24/05:47pm 25.7 E 13 22 1010.8 - 1.8 - - 6 - - - -
24/05:37pm 27.5 ESE 15 22 1010.5 - 1.2 - Partly cloudy 10 - - - -
24/05:30pm 27.5 E 4 6 1010.3 - 1.2 - Partly cloudy 10 - - - -
24/05:05pm 27.4 E 5 6 1010.2 - 1.2 - Partly cloudy 10 - - - -
24/05:00pm 27.4 E 5 7 1010.1 - 1.2 - Partly cloudy 10 - - - -
24/04:45pm 28.1 SE 8 13 1010.2 - 0.8 - Partly cloudy 6 - - - -
24/04:30pm 31.8 ESE 8 11 1009.7 - 0.0 - Partly cloudy 10 - - - -
24/04:00pm 31.6 SE 7 12 1009.7 - 0.0 - Partly cloudy 10 - - - -
24/03:30pm 31.9 E 8 14 1009.7 - 0.0 - Partly cloudy 10 - - - -
24/03:00pm 32.0 E 7 13 1009.7 - 0.0 - Mostly cloudy 10 - - - -
24/02:30pm 32.5 E 7 11 1009.9 - 0.0 - Partly cloudy 10 - - - -
24/02:00pm 31.2 ESE 7 12 1010.4 - 0.0 - Partly cloudy 10 - - - -
24/01:30pm 31.2 E 10 15 1010.8 - 0.0 - Partly cloudy 10 - - - -
24/01:00pm 30.5 SE 8 13 1011.3 - 0.0 - Partly cloudy 10 - - - -
24/12:30pm 31.4 SE 10 14 1011.8 - 0.0 - Partly cloudy 10 - - - -
24/12:00pm 30.6 E 9 14 1012.1 - 0.0 - Mostly cloudy 10 - - - -
24/11:30am 31.7 ESE 10 16 1012.3 - 0.0 - Partly cloudy 10 - - - -
24/11:00am 30.0 ESE 11 15 1012.4 - 0.0 - Partly cloudy 10 - - - -
24/10:30am 29.1 ESE 12 16 1012.6 - 0.0 - Partly cloudy 10 - - - -
24/10:00am 28.4 SSE 6 9 1012.6 - 0.0 - Partly cloudy 10 - - - -
24/09:30am 27.3 SE 7 10 1012.5 - 0.0 - Partly cloudy 10 - - - -
24/09:00am 26.4 SE 8 12 1012.4 R 0.4 Haze Clear 30 - - - -
24/08:30am 26.5 ESE 5 14 1012.5 - 0.4 - Partly cloudy 10 - - - -
24/08:00am 25.2 SSE 3 4 1012.3 - 0.4 - Partly cloudy 10 - - - -
24/07:30am 24.3 SE 4 5 1011.8 - 0.4 - - 10 - - - -
24/07:00am 24.0 ESE 6 8 1011.2 - 0.4 - - 10 - - - -
24/06:30am 24.0 ESE 5 7 1011.0 - 0.4 - - 10 - - - -
24/06:00am 24.0 SE 4 6 1010.8 - 0.4 - - 10 - - - -
24/05:30am 24.1 SSE 3 5 1010.7 - 0.4 - - 10 - - - -
24/05:00am 24.2 SSE 4 6 1010.5 - 0.4 - - 10 - - - -
24/04:30am 24.2 SSE 4 8 1010.3 - 0.4 - - 10 - - - -
24/04:00am 24.3 SSE 4 6 1010.2 - 0.4 - - 10 - - - -
24/03:30am 24.4 SE 5 7 1010.1 - 0.4 - - 10 - - - -
24/03:00am 24.4 SE 2 3 1010.2 - 0.4 - - 10 - - - -
24/02:30am 24.7 ESE 3 5 1010.4 - 0.4 - - 10 - - - -
24/02:00am 24.8 E 3 6 1010.7 - 0.4 - Cloudy 10 - - - -
24/01:30am 24.8 E 5 8 1010.6 - 0.4 - Partly cloudy 10 - - - -
24/01:00am 24.8 ESE 3 5 1011.0 - 0.4 - Partly cloudy 10 - - - -
24/12:30am 24.8 ESE 3 5 1011.1 - 0.4 - Partly cloudy 10 - - - -
24/12:00am 24.9 E 3 4 1011.2 - 0.4 - Mostly cloudy 10 - - - -
 
Date/Time
EST
Temp
°C
Wind Pressure Rain since
9am
mm
Weather Cloud Vis
km
Sea
Height
m
Swell
Dir  Spd
kts
Gust
kts
hPa Trend Height
m
Period
s
Dir
23/11:30pm 24.8 E 4 5 1011.5 - 0.4 - Partly cloudy 10 - - - -
23/11:00pm 24.8 E 3 5 1011.5 - 0.4 - - 10 - - - -
23/10:30pm 25.0 SE 6 9 1011.4 - 0.4 - Partly cloudy 10 - - - -
23/10:00pm 25.1 SE 6 8 1011.5 - 0.4 - - 10 - - - -
23/09:30pm 25.4 SE 5 6 1011.5 - 0.4 - Partly cloudy 10 - - - -
23/09:12pm 25.5 ESE 5 7 1011.4 - 0.4 - Partly cloudy 10 - - - -
23/09:00pm 25.5 ESE 7 10 1011.1 - 0.4 - Cloudy 4 - - - -
23/08:40pm 26.4 SE 6 9 1011.1 - 0.0 - Partly cloudy 6 - - - -
23/08:30pm 26.6 SE 5 8 1010.8 - 0.0 - Partly cloudy 10 - - - -
23/08:00pm 26.8 SE 5 8 1010.7 - 0.0 - Partly cloudy 10 - - - -
23/07:30pm 27.0 SE 5 7 1010.3 - 0.0 - Partly cloudy 10 - - - -
23/07:00pm 26.9 SE 5 8 1009.8 - 0.0 - Partly cloudy 10 - - - -
23/06:30pm 27.1 SE 7 11 1009.4 - 0.0 - - 10 - - - -
23/06:00pm 27.6 SE 8 11 1009.0 - 0.0 - Partly cloudy 10 - - - -
23/05:30pm 28.6 SE 9 12 1008.8 - 0.0 - Partly cloudy 10 - - - -
23/05:00pm 29.4 E 10 14 1008.4 - 0.0 - Cloudy 10 - - - -
23/04:30pm 29.2 E 9 15 1008.2 - 0.0 - Partly cloudy 10 - - - -
23/04:00pm 29.7 E 6 10 1008.2 - 0.0 - Partly cloudy 10 - - - -
23/03:30pm 28.8 E 7 12 1008.2 - 0.0 - Partly cloudy 10 - - - -
23/03:00pm 30.5 E 7 12 1008.0 - 0.0 - Cloudy 10 - - - -
23/02:30pm 30.9 E 10 13 1008.4 - 0.0 - Partly cloudy 10 - - - -
23/02:00pm 30.5 ESE 10 14 1008.6 - 0.0 - Partly cloudy 10 - - - -
23/01:30pm 29.9 E 10 14 1009.0 - 0.0 - Partly cloudy 10 - - - -
23/01:00pm 31.4 ESE 9 13 1009.3 - 0.0 - Partly cloudy 10 - - - -

Other Formats:

Comma delimited format used in spreadsheet applications
http://www.bom.gov.au/fwo/IDQ60701/IDQ60701.94170.axf

JavaScript Object Notation format (JSON) in row-major order
http://www.bom.gov.au/fwo/IDQ60701/IDQ60701.94170.json